sensor_id;sensor_type;location;lat;lon;timestamp;temperature;humidity
20827;DHT22;10574;52.508;13.236;2022-08-30T00:01:02;16.30;99.90
20827;DHT22;10574;52.508;13.236;2022-08-30T00:03:43;16.30;99.90
20827;DHT22;10574;52.508;13.236;2022-08-30T00:06:15;16.10;99.90
20827;DHT22;10574;52.508;13.236;2022-08-30T00:08:44;16.10;99.90
20827;DHT22;10574;52.508;13.236;2022-08-30T00:11:16;16.10;99.90
20827;DHT22;10574;52.508;13.236;2022-08-30T00:13:51;16.10;99.90
20827;DHT22;10574;52.508;13.236;2022-08-30T00:16:16;16.10;99.90
20827;DHT22;10574;52.508;13.236;2022-08-30T00:18:44;16.00;99.90
20827;DHT22;10574;52.508;13.236;2022-08-30T00:21:13;16.10;99.90
20827;DHT22;10574;52.508;13.236;2022-08-30T00:23:41;16.00;99.90
20827;DHT22;10574;52.508;13.236;2022-08-30T00:26:08;16.00;99.90
20827;DHT22;10574;52.508;13.236;2022-08-30T00:28:36;16.00;99.90
20827;DHT22;10574;52.508;13.236;2022-08-30T00:31:04;16.00;99.90
20827;DHT22;10574;52.508;13.236;2022-08-30T00:33:32;16.00;99.90
20827;DHT22;10574;52.508;13.236;2022-08-30T00:36:00;16.00;99.90
20827;DHT22;10574;52.508;13.236;2022-08-30T00:38:28;16.00;99.90
20827;DHT22;10574;52.508;13.236;2022-08-30T00:40:56;16.00;99.90
20827;DHT22;10574;52.508;13.236;2022-08-30T00:43:28;16.00;99.90
20827;DHT22;10574;52.508;13.236;2022-08-30T00:45:56;16.00;99.90
20827;DHT22;10574;52.508;13.236;2022-08-30T00:48:24;16.10;99.90
20827;DHT22;10574;52.508;13.236;2022-08-30T00:50:57;16.10;99.90
20827;DHT22;10574;52.508;13.236;2022-08-30T00:53:28;16.00;99.90
20827;DHT22;10574;52.508;13.236;2022-08-30T00:55:57;16.00;99.90
20827;DHT22;10574;52.508;13.236;2022-08-30T00:58:31;15.90;99.90
20827;DHT22;10574;52.508;13.236;2022-08-30T01:01:01;15.90;99.90
20827;DHT22;10574;52.508;13.236;2022-08-30T01:03:30;15.80;99.90
20827;DHT22;10574;52.508;13.236;2022-08-30T01:05:59;15.80;99.90
20827;DHT22;10574;52.508;13.236;2022-08-30T01:08:27;15.80;99.90
20827;DHT22;10574;52.508;13.236;2022-08-30T01:10:57;15.90;99.90
20827;DHT22;10574;52.508;13.236;2022-08-30T01:13:26;15.90;99.90
20827;DHT22;10574;52.508;13.236;2022-08-30T01:15:54;15.90;99.90
20827;DHT22;10574;52.508;13.236;2022-08-30T01:18:23;15.90;99.90
20827;DHT22;10574;52.508;13.236;2022-08-30T01:21:02;15.90;99.90
20827;DHT22;10574;52.508;13.236;2022-08-30T01:23:30;16.00;99.90
20827;DHT22;10574;52.508;13.236;2022-08-30T01:25:59;16.00;99.90
20827;DHT22;10574;52.508;13.236;2022-08-30T01:28:28;15.90;99.90
20827;DHT22;10574;52.508;13.236;2022-08-30T01:30:56;15.90;99.90
20827;DHT22;10574;52.508;13.236;2022-08-30T01:33:24;16.00;99.90
20827;DHT22;10574;52.508;13.236;2022-08-30T01:35:59;16.00;99.90
20827;DHT22;10574;52.508;13.236;2022-08-30T01:38:36;16.00;99.90
20827;DHT22;10574;52.508;13.236;2022-08-30T01:43:43;15.90;99.90
20827;DHT22;10574;52.508;13.236;2022-08-30T01:46:14;15.90;99.90
20827;DHT22;10574;52.508;13.236;2022-08-30T01:48:43;15.90;99.90
20827;DHT22;10574;52.508;13.236;2022-08-30T01:51:12;16.00;99.90
20827;DHT22;10574;52.508;13.236;2022-08-30T01:53:43;16.00;99.90
20827;DHT22;10574;52.508;13.236;2022-08-30T01:56:12;15.90;99.90
20827;DHT22;10574;52.508;13.236;2022-08-30T01:58:40;15.90;99.90
20827;DHT22;10574;52.508;13.236;2022-08-30T02:01:11;15.90;99.90
20827;DHT22;10574;52.508;13.236;2022-08-30T02:03:41;15.90;99.90
20827;DHT22;10574;52.508;13.236;2022-08-30T02:06:12;15.90;99.90
20827;DHT22;10574;52.508;13.236;2022-08-30T02:08:40;15.90;99.90
20827;DHT22;10574;52.508;13.236;2022-08-30T02:11:09;15.80;99.90
20827;DHT22;10574;52.508;13.236;2022-08-30T02:13:37;15.80;99.90
20827;DHT22;10574;52.508;13.236;2022-08-30T02:16:08;15.80;99.90
20827;DHT22;10574;52.508;13.236;2022-08-30T02:18:37;15.80;99.90
20827;DHT22;10574;52.508;13.236;2022-08-30T02:21:06;15.80;99.90
20827;DHT22;10574;52.508;13.236;2022-08-30T02:23:35;15.70;99.90
20827;DHT22;10574;52.508;13.236;2022-08-30T02:26:04;15.60;99.90
20827;DHT22;10574;52.508;13.236;2022-08-30T02:28:31;15.60;99.90
20827;DHT22;10574;52.508;13.236;2022-08-30T02:31:00;15.50;99.90
20827;DHT22;10574;52.508;13.236;2022-08-30T02:33:28;15.60;99.90
20827;DHT22;10574;52.508;13.236;2022-08-30T02:35:57;15.60;99.90
20827;DHT22;10574;52.508;13.236;2022-08-30T02:38:25;15.60;99.90
20827;DHT22;10574;52.508;13.236;2022-08-30T02:40:53;15.60;99.90
20827;DHT22;10574;52.508;13.236;2022-08-30T02:43:20;15.50;99.90
20827;DHT22;10574;52.508;13.236;2022-08-30T02:45:48;15.50;99.90
20827;DHT22;10574;52.508;13.236;2022-08-30T02:48:16;15.60;99.90
20827;DHT22;10574;52.508;13.236;2022-08-30T02:50:45;15.50;99.90
20827;DHT22;10574;52.508;13.236;2022-08-30T02:53:13;15.50;99.90
20827;DHT22;10574;52.508;13.236;2022-08-30T02:55:41;15.50;99.90
20827;DHT22;10574;52.508;13.236;2022-08-30T02:58:09;15.50;99.90
20827;DHT22;10574;52.508;13.236;2022-08-30T03:00:38;15.50;99.90
20827;DHT22;10574;52.508;13.236;2022-08-30T03:03:07;15.50;99.90
20827;DHT22;10574;52.508;13.236;2022-08-30T03:05:35;15.40;99.90
20827;DHT22;10574;52.508;13.236;2022-08-30T03:08:02;15.40;99.90
20827;DHT22;10574;52.508;13.236;2022-08-30T03:10:30;15.40;99.90
20827;DHT22;10574;52.508;13.236;2022-08-30T03:12:58;15.30;99.90
20827;DHT22;10574;52.508;13.236;2022-08-30T03:15:26;15.40;99.90
20827;DHT22;10574;52.508;13.236;2022-08-30T03:17:54;15.30;99.90
20827;DHT22;10574;52.508;13.236;2022-08-30T03:20:23;15.30;99.90
20827;DHT22;10574;52.508;13.236;2022-08-30T03:22:51;15.30;99.90
20827;DHT22;10574;52.508;13.236;2022-08-30T03:25:20;15.30;99.90
20827;DHT22;10574;52.508;13.236;2022-08-30T03:27:49;15.30;99.90
20827;DHT22;10574;52.508;13.236;2022-08-30T03:30:18;15.30;99.90
20827;DHT22;10574;52.508;13.236;2022-08-30T03:32:46;15.30;99.90
20827;DHT22;10574;52.508;13.236;2022-08-30T03:35:14;15.20;99.90
20827;DHT22;10574;52.508;13.236;2022-08-30T03:37:45;15.20;99.90
20827;DHT22;10574;52.508;13.236;2022-08-30T03:40:15;15.20;99.90
20827;DHT22;10574;52.508;13.236;2022-08-30T03:42:44;15.20;99.90
20827;DHT22;10574;52.508;13.236;2022-08-30T03:45:12;15.20;99.90
20827;DHT22;10574;52.508;13.236;2022-08-30T03:47:41;15.30;99.90
20827;DHT22;10574;52.508;13.236;2022-08-30T03:50:11;15.20;99.90
20827;DHT22;10574;52.508;13.236;2022-08-30T03:52:39;15.30;99.90
20827;DHT22;10574;52.508;13.236;2022-08-30T03:55:07;15.20;99.90
20827;DHT22;10574;52.508;13.236;2022-08-30T03:57:35;15.30;99.90
20827;DHT22;10574;52.508;13.236;2022-08-30T04:00:05;15.30;99.90
20827;DHT22;10574;52.508;13.236;2022-08-30T04:02:33;15.30;99.90
20827;DHT22;10574;52.508;13.236;2022-08-30T04:05:01;15.20;99.90
20827;DHT22;10574;52.508;13.236;2022-08-30T04:07:28;15.30;99.90
20827;DHT22;10574;52.508;13.236;2022-08-30T04:09:56;15.20;99.90
20827;DHT22;10574;52.508;13.236;2022-08-30T04:12:24;15.30;99.90
20827;DHT22;10574;52.508;13.236;2022-08-30T04:14:51;15.30;99.90
20827;DHT22;10574;52.508;13.236;2022-08-30T04:17:19;15.20;99.90
20827;DHT22;10574;52.508;13.236;2022-08-30T04:19:47;15.20;99.90
20827;DHT22;10574;52.508;13.236;2022-08-30T04:22:14;15.20;99.90
20827;DHT22;10574;52.508;13.236;2022-08-30T04:24:43;15.20;99.90
20827;DHT22;10574;52.508;13.236;2022-08-30T04:27:10;15.20;99.90
20827;DHT22;10574;52.508;13.236;2022-08-30T04:29:38;15.20;99.90
20827;DHT22;10574;52.508;13.236;2022-08-30T04:32:06;15.20;99.90
20827;DHT22;10574;52.508;13.236;2022-08-30T04:34:33;15.20;99.90
20827;DHT22;10574;52.508;13.236;2022-08-30T04:37:01;15.10;99.90
20827;DHT22;10574;52.508;13.236;2022-08-30T04:39:29;15.10;99.90
20827;DHT22;10574;52.508;13.236;2022-08-30T04:41:56;15.20;99.90
20827;DHT22;10574;52.508;13.236;2022-08-30T04:44:24;15.20;99.90
20827;DHT22;10574;52.508;13.236;2022-08-30T04:46:53;15.20;99.90
20827;DHT22;10574;52.508;13.236;2022-08-30T04:49:20;15.20;99.90
20827;DHT22;10574;52.508;13.236;2022-08-30T04:51:48;15.20;99.90
20827;DHT22;10574;52.508;13.236;2022-08-30T04:54:16;15.20;99.90
20827;DHT22;10574;52.508;13.236;2022-08-30T04:56:44;15.20;99.90
20827;DHT22;10574;52.508;13.236;2022-08-30T04:59:11;15.20;99.90
20827;DHT22;10574;52.508;13.236;2022-08-30T05:01:39;15.10;99.90
20827;DHT22;10574;52.508;13.236;2022-08-30T05:04:12;15.10;99.90
20827;DHT22;10574;52.508;13.236;2022-08-30T05:06:39;15.10;99.90
20827;DHT22;10574;52.508;13.236;2022-08-30T05:09:07;15.10;99.90
20827;DHT22;10574;52.508;13.236;2022-08-30T05:11:35;15.20;99.90
20827;DHT22;10574;52.508;13.236;2022-08-30T05:14:04;15.30;99.90
20827;DHT22;10574;52.508;13.236;2022-08-30T05:16:32;15.30;99.90
20827;DHT22;10574;52.508;13.236;2022-08-30T05:18:59;15.20;99.90
20827;DHT22;10574;52.508;13.236;2022-08-30T05:21:28;15.20;99.90
20827;DHT22;10574;52.508;13.236;2022-08-30T05:23:57;15.20;99.90
20827;DHT22;10574;52.508;13.236;2022-08-30T05:26:28;15.30;99.90
20827;DHT22;10574;52.508;13.236;2022-08-30T05:28:56;15.30;99.90
20827;DHT22;10574;52.508;13.236;2022-08-30T05:31:27;15.30;99.90
20827;DHT22;10574;52.508;13.236;2022-08-30T05:33:56;15.30;99.90
20827;DHT22;10574;52.508;13.236;2022-08-30T05:36:27;15.30;99.90
20827;DHT22;10574;52.508;13.236;2022-08-30T05:38:55;15.30;99.90
20827;DHT22;10574;52.508;13.236;2022-08-30T05:41:24;15.30;99.90
20827;DHT22;10574;52.508;13.236;2022-08-30T05:43:54;15.30;99.90
20827;DHT22;10574;52.508;13.236;2022-08-30T05:46:22;15.30;99.90
20827;DHT22;10574;52.508;13.236;2022-08-30T05:48:51;15.40;99.90
20827;DHT22;10574;52.508;13.236;2022-08-30T05:51:20;15.50;99.90
20827;DHT22;10574;52.508;13.236;2022-08-30T05:53:51;15.50;99.90
20827;DHT22;10574;52.508;13.236;2022-08-30T05:56:23;15.50;99.90
20827;DHT22;10574;52.508;13.236;2022-08-30T05:58:50;15.50;99.90
20827;DHT22;10574;52.508;13.236;2022-08-30T06:01:23;15.50;99.90
20827;DHT22;10574;52.508;13.236;2022-08-30T06:03:51;15.60;99.90
20827;DHT22;10574;52.508;13.236;2022-08-30T06:06:19;15.60;99.90
20827;DHT22;10574;52.508;13.236;2022-08-30T06:08:46;15.60;99.90
20827;DHT22;10574;52.508;13.236;2022-08-30T06:11:17;15.60;99.90
20827;DHT22;10574;52.508;13.236;2022-08-30T06:13:45;15.60;99.90
20827;DHT22;10574;52.508;13.236;2022-08-30T06:16:16;15.70;99.90
20827;DHT22;10574;52.508;13.236;2022-08-30T06:18:45;15.80;99.90
20827;DHT22;10574;52.508;13.236;2022-08-30T06:21:25;15.80;99.90
20827;DHT22;10574;52.508;13.236;2022-08-30T06:23:55;15.70;99.90
20827;DHT22;10574;52.508;13.236;2022-08-30T06:26:24;15.90;99.90
20827;DHT22;10574;52.508;13.236;2022-08-30T06:28:52;15.90;99.90
20827;DHT22;10574;52.508;13.236;2022-08-30T06:31:22;16.00;99.90
20827;DHT22;10574;52.508;13.236;2022-08-30T06:33:50;16.10;99.90
20827;DHT22;10574;52.508;13.236;2022-08-30T06:36:21;16.20;99.90
20827;DHT22;10574;52.508;13.236;2022-08-30T06:38:50;16.20;99.90
20827;DHT22;10574;52.508;13.236;2022-08-30T06:41:21;16.30;99.90
20827;DHT22;10574;52.508;13.236;2022-08-30T06:43:49;16.40;99.90
20827;DHT22;10574;52.508;13.236;2022-08-30T06:46:20;16.50;99.90
20827;DHT22;10574;52.508;13.236;2022-08-30T06:48:49;16.60;99.90
20827;DHT22;10574;52.508;13.236;2022-08-30T06:51:22;16.50;99.90
20827;DHT22;10574;52.508;13.236;2022-08-30T06:53:50;16.70;99.90
20827;DHT22;10574;52.508;13.236;2022-08-30T06:56:19;16.70;99.90
20827;DHT22;10574;52.508;13.236;2022-08-30T06:58:48;16.80;99.90
20827;DHT22;10574;52.508;13.236;2022-08-30T07:01:18;16.70;99.90
20827;DHT22;10574;52.508;13.236;2022-08-30T07:03:47;16.70;99.90
20827;DHT22;10574;52.508;13.236;2022-08-30T07:06:16;16.70;99.90
20827;DHT22;10574;52.508;13.236;2022-08-30T07:08:44;16.90;99.90
20827;DHT22;10574;52.508;13.236;2022-08-30T07:11:24;17.00;99.90
20827;DHT22;10574;52.508;13.236;2022-08-30T07:13:52;17.00;99.90
20827;DHT22;10574;52.508;13.236;2022-08-30T07:16:19;17.10;99.90
20827;DHT22;10574;52.508;13.236;2022-08-30T07:18:47;17.10;99.90
20827;DHT22;10574;52.508;13.236;2022-08-30T07:21:34;17.20;99.90
20827;DHT22;10574;52.508;13.236;2022-08-30T07:24:03;17.40;99.90
20827;DHT22;10574;52.508;13.236;2022-08-30T07:26:38;17.70;99.90
20827;DHT22;10574;52.508;13.236;2022-08-30T07:29:03;17.90;99.90
20827;DHT22;10574;52.508;13.236;2022-08-30T07:31:31;18.00;99.90
20827;DHT22;10574;52.508;13.236;2022-08-30T07:34:05;18.10;99.90
20827;DHT22;10574;52.508;13.236;2022-08-30T07:36:29;17.90;99.90
20827;DHT22;10574;52.508;13.236;2022-08-30T07:38:57;18.10;99.90
20827;DHT22;10574;52.508;13.236;2022-08-30T07:41:30;18.40;99.90
20827;DHT22;10574;52.508;13.236;2022-08-30T07:43:58;18.60;99.90
20827;DHT22;10574;52.508;13.236;2022-08-30T07:46:25;18.80;99.90
20827;DHT22;10574;52.508;13.236;2022-08-30T07:48:54;19.00;99.90
20827;DHT22;10574;52.508;13.236;2022-08-30T07:51:24;19.10;99.90
20827;DHT22;10574;52.508;13.236;2022-08-30T07:53:53;19.40;99.90
20827;DHT22;10574;52.508;13.236;2022-08-30T07:56:22;19.80;99.90
20827;DHT22;10574;52.508;13.236;2022-08-30T07:58:50;20.00;99.90
20827;DHT22;10574;52.508;13.236;2022-08-30T08:01:18;19.70;99.90
20827;DHT22;10574;52.508;13.236;2022-08-30T08:03:47;19.40;99.90
20827;DHT22;10574;52.508;13.236;2022-08-30T08:06:18;19.00;99.90
20827;DHT22;10574;52.508;13.236;2022-08-30T08:08:46;18.80;99.90
20827;DHT22;10574;52.508;13.236;2022-08-30T08:11:19;18.70;99.90
20827;DHT22;10574;52.508;13.236;2022-08-30T08:13:48;18.60;99.90
20827;DHT22;10574;52.508;13.236;2022-08-30T08:16:17;18.40;99.90
20827;DHT22;10574;52.508;13.236;2022-08-30T08:18:44;18.20;99.90
20827;DHT22;10574;52.508;13.236;2022-08-30T08:21:12;18.10;99.90
20827;DHT22;10574;52.508;13.236;2022-08-30T08:23:40;17.90;99.90
20827;DHT22;10574;52.508;13.236;2022-08-30T08:26:07;17.90;99.90
20827;DHT22;10574;52.508;13.236;2022-08-30T08:28:35;17.80;99.90
20827;DHT22;10574;52.508;13.236;2022-08-30T08:31:03;17.70;99.90
20827;DHT22;10574;52.508;13.236;2022-08-30T08:33:32;17.80;99.90
20827;DHT22;10574;52.508;13.236;2022-08-30T08:36:00;17.90;99.90
20827;DHT22;10574;52.508;13.236;2022-08-30T08:38:27;17.90;99.90
20827;DHT22;10574;52.508;13.236;2022-08-30T08:43:26;17.90;99.90
20827;DHT22;10574;52.508;13.236;2022-08-30T08:48:45;18.10;99.90
20827;DHT22;10574;52.508;13.236;2022-08-30T08:51:20;18.20;99.90
20827;DHT22;10574;52.508;13.236;2022-08-30T08:54:21;18.30;99.90
20827;DHT22;10574;52.508;13.236;2022-08-30T08:56:51;18.40;99.90
20827;DHT22;10574;52.508;13.236;2022-08-30T08:59:19;18.40;99.90
20827;DHT22;10574;52.508;13.236;2022-08-30T09:01:47;18.20;99.90
20827;DHT22;10574;52.508;13.236;2022-08-30T09:04:21;18.10;99.90
20827;DHT22;10574;52.508;13.236;2022-08-30T09:07:16;17.90;99.90
20827;DHT22;10574;52.508;13.236;2022-08-30T09:09:39;17.90;99.90
20827;DHT22;10574;52.508;13.236;2022-08-30T09:12:09;17.90;99.90
20827;DHT22;10574;52.508;13.236;2022-08-30T09:14:43;17.70;99.90
20827;DHT22;10574;52.508;13.236;2022-08-30T09:17:17;17.60;99.90
20827;DHT22;10574;52.508;13.236;2022-08-30T09:22:39;17.50;99.90
20827;DHT22;10574;52.508;13.236;2022-08-30T09:25:17;17.50;99.90
20827;DHT22;10574;52.508;13.236;2022-08-30T09:27:40;17.60;99.90
20827;DHT22;10574;52.508;13.236;2022-08-30T09:30:15;17.70;99.90
20827;DHT22;10574;52.508;13.236;2022-08-30T09:32:41;17.80;99.90
20827;DHT22;10574;52.508;13.236;2022-08-30T09:35:12;17.80;99.90
20827;DHT22;10574;52.508;13.236;2022-08-30T09:40:22;18.00;99.90
20827;DHT22;10574;52.508;13.236;2022-08-30T09:43:04;18.20;99.90
20827;DHT22;10574;52.508;13.236;2022-08-30T09:45:35;18.10;99.90
20827;DHT22;10574;52.508;13.236;2022-08-30T09:48:20;18.30;99.90
20827;DHT22;10574;52.508;13.236;2022-08-30T09:50:52;18.40;99.90
20827;DHT22;10574;52.508;13.236;2022-08-30T09:53:22;18.30;99.90
20827;DHT22;10574;52.508;13.236;2022-08-30T09:55:54;18.30;99.90
20827;DHT22;10574;52.508;13.236;2022-08-30T09:58:31;18.30;99.90
20827;DHT22;10574;52.508;13.236;2022-08-30T10:03:54;18.40;99.90
20827;DHT22;10574;52.508;13.236;2022-08-30T10:06:30;18.50;99.90
20827;DHT22;10574;52.508;13.236;2022-08-30T10:09:29;18.60;99.90
20827;DHT22;10574;52.508;13.236;2022-08-30T10:12:35;18.60;99.90
20827;DHT22;10574;52.508;13.236;2022-08-30T10:23:05;19.30;99.90
20827;DHT22;10574;52.508;13.236;2022-08-30T10:25:40;19.60;99.90
20827;DHT22;10574;52.508;13.236;2022-08-30T10:28:54;19.80;99.90
20827;DHT22;10574;52.508;13.236;2022-08-30T10:30:46;19.80;99.90
20827;DHT22;10574;52.508;13.236;2022-08-30T10:33:23;20.00;99.90
20827;DHT22;10574;52.508;13.236;2022-08-30T10:35:52;20.20;99.90
20827;DHT22;10574;52.508;13.236;2022-08-30T10:38:35;20.20;99.90
20827;DHT22;10574;52.508;13.236;2022-08-30T10:47:05;20.10;99.90
20827;DHT22;10574;52.508;13.236;2022-08-30T10:49:45;19.80;99.90
20827;DHT22;10574;52.508;13.236;2022-08-30T10:52:29;20.10;99.90
20827;DHT22;10574;52.508;13.236;2022-08-30T10:55:05;20.20;99.90
20827;DHT22;10574;52.508;13.236;2022-08-30T10:57:30;20.50;99.90
20827;DHT22;10574;52.508;13.236;2022-08-30T11:00:00;20.60;99.90
20827;DHT22;10574;52.508;13.236;2022-08-30T11:02:47;20.50;99.90
20827;DHT22;10574;52.508;13.236;2022-08-30T11:05:31;20.70;99.90
20827;DHT22;10574;52.508;13.236;2022-08-30T11:08:06;21.00;99.90
20827;DHT22;10574;52.508;13.236;2022-08-30T11:11:19;20.80;99.90
20827;DHT22;10574;52.508;13.236;2022-08-30T11:13:25;21.20;99.90
20827;DHT22;10574;52.508;13.236;2022-08-30T11:16:07;21.70;99.90
20827;DHT22;10574;52.508;13.236;2022-08-30T11:18:28;21.90;99.90
20827;DHT22;10574;52.508;13.236;2022-08-30T11:21:18;21.50;99.90
20827;DHT22;10574;52.508;13.236;2022-08-30T11:24:07;21.20;99.90
20827;DHT22;10574;52.508;13.236;2022-08-30T11:29:36;21.20;99.90
20827;DHT22;10574;52.508;13.236;2022-08-30T11:42:45;22.00;99.90
20827;DHT22;10574;52.508;13.236;2022-08-30T11:48:02;23.00;99.90
20827;DHT22;10574;52.508;13.236;2022-08-30T11:53:28;21.80;99.90
20827;DHT22;10574;52.508;13.236;2022-08-30T11:58:54;21.80;99.90
20827;DHT22;10574;52.508;13.236;2022-08-30T12:06:48;21.40;99.90
20827;DHT22;10574;52.508;13.236;2022-08-30T12:12:03;21.60;99.90
20827;DHT22;10574;52.508;13.236;2022-08-30T12:17:28;22.50;99.90
20827;DHT22;10574;52.508;13.236;2022-08-30T12:22:54;23.50;99.90
20827;DHT22;10574;52.508;13.236;2022-08-30T12:25:29;22.60;99.90
20827;DHT22;10574;52.508;13.236;2022-08-30T12:28:14;22.30;99.90
20827;DHT22;10574;52.508;13.236;2022-08-30T12:30:42;22.30;99.90
20827;DHT22;10574;52.508;13.236;2022-08-30T12:33:12;22.30;99.90
20827;DHT22;10574;52.508;13.236;2022-08-30T12:35:42;22.50;99.90
20827;DHT22;10574;52.508;13.236;2022-08-30T12:38:17;22.40;99.90
20827;DHT22;10574;52.508;13.236;2022-08-30T12:40:53;22.20;99.90
20827;DHT22;10574;52.508;13.236;2022-08-30T12:43:28;22.00;99.90
20827;DHT22;10574;52.508;13.236;2022-08-30T12:45:54;22.20;99.90
20827;DHT22;10574;52.508;13.236;2022-08-30T12:48:23;22.20;99.90
20827;DHT22;10574;52.508;13.236;2022-08-30T12:50:54;22.10;99.90
20827;DHT22;10574;52.508;13.236;2022-08-30T12:53:28;22.20;99.90
20827;DHT22;10574;52.508;13.236;2022-08-30T12:56:00;21.70;99.90
20827;DHT22;10574;52.508;13.236;2022-08-30T12:58:49;21.80;99.90
20827;DHT22;10574;52.508;13.236;2022-08-30T13:01:28;21.30;99.90
20827;DHT22;10574;52.508;13.236;2022-08-30T13:04:10;21.20;99.90
20827;DHT22;10574;52.508;13.236;2022-08-30T13:06:56;21.10;99.90
20827;DHT22;10574;52.508;13.236;2022-08-30T13:09:37;21.10;99.90
20827;DHT22;10574;52.508;13.236;2022-08-30T13:12:07;21.10;99.90
20827;DHT22;10574;52.508;13.236;2022-08-30T13:14:43;21.20;99.90
20827;DHT22;10574;52.508;13.236;2022-08-30T13:20:06;21.00;99.90
20827;DHT22;10574;52.508;13.236;2022-08-30T13:22:58;21.20;99.90
20827;DHT22;10574;52.508;13.236;2022-08-30T13:25:10;21.40;99.90
20827;DHT22;10574;52.508;13.236;2022-08-30T13:27:38;21.20;99.90
20827;DHT22;10574;52.508;13.236;2022-08-30T13:30:09;21.40;99.90
20827;DHT22;10574;52.508;13.236;2022-08-30T13:32:37;21.40;99.90
20827;DHT22;10574;52.508;13.236;2022-08-30T13:35:06;21.50;99.90
20827;DHT22;10574;52.508;13.236;2022-08-30T13:37:34;21.60;99.90
20827;DHT22;10574;52.508;13.236;2022-08-30T13:40:03;21.60;99.90
20827;DHT22;10574;52.508;13.236;2022-08-30T13:42:31;21.70;99.90
20827;DHT22;10574;52.508;13.236;2022-08-30T13:44:58;21.80;99.90
20827;DHT22;10574;52.508;13.236;2022-08-30T13:47:26;21.90;99.90
20827;DHT22;10574;52.508;13.236;2022-08-30T13:49:54;22.00;99.90
20827;DHT22;10574;52.508;13.236;2022-08-30T13:52:22;21.80;99.90
20827;DHT22;10574;52.508;13.236;2022-08-30T13:54:52;21.80;99.90
20827;DHT22;10574;52.508;13.236;2022-08-30T13:57:23;21.70;99.90
20827;DHT22;10574;52.508;13.236;2022-08-30T13:59:51;21.50;99.90
20827;DHT22;10574;52.508;13.236;2022-08-30T14:02:19;21.50;99.90
20827;DHT22;10574;52.508;13.236;2022-08-30T14:04:46;21.70;99.90
20827;DHT22;10574;52.508;13.236;2022-08-30T14:07:14;21.60;99.90
20827;DHT22;10574;52.508;13.236;2022-08-30T14:09:42;21.50;99.90
20827;DHT22;10574;52.508;13.236;2022-08-30T14:12:09;21.50;99.90
20827;DHT22;10574;52.508;13.236;2022-08-30T14:14:37;21.50;99.90
20827;DHT22;10574;52.508;13.236;2022-08-30T14:17:05;21.50;99.90
20827;DHT22;10574;52.508;13.236;2022-08-30T14:19:33;21.50;99.90
20827;DHT22;10574;52.508;13.236;2022-08-30T14:22:00;21.30;99.90
20827;DHT22;10574;52.508;13.236;2022-08-30T14:24:28;21.10;99.90
20827;DHT22;10574;52.508;13.236;2022-08-30T14:26:56;21.10;99.90
20827;DHT22;10574;52.508;13.236;2022-08-30T14:29:24;20.90;99.90
20827;DHT22;10574;52.508;13.236;2022-08-30T14:31:54;20.70;99.90
20827;DHT22;10574;52.508;13.236;2022-08-30T14:34:23;20.70;99.90
20827;DHT22;10574;52.508;13.236;2022-08-30T14:36:51;20.70;99.90
20827;DHT22;10574;52.508;13.236;2022-08-30T14:39:19;20.90;99.90
20827;DHT22;10574;52.508;13.236;2022-08-30T14:41:49;20.90;99.90
20827;DHT22;10574;52.508;13.236;2022-08-30T14:44:19;20.70;99.90
20827;DHT22;10574;52.508;13.236;2022-08-30T14:46:48;20.60;99.90
20827;DHT22;10574;52.508;13.236;2022-08-30T14:49:16;20.70;99.90
20827;DHT22;10574;52.508;13.236;2022-08-30T14:51:44;20.70;99.90
20827;DHT22;10574;52.508;13.236;2022-08-30T14:54:15;20.50;99.90
20827;DHT22;10574;52.508;13.236;2022-08-30T14:56:43;20.60;99.90
20827;DHT22;10574;52.508;13.236;2022-08-30T14:59:11;20.60;99.90
20827;DHT22;10574;52.508;13.236;2022-08-30T15:01:39;20.60;99.90
20827;DHT22;10574;52.508;13.236;2022-08-30T15:04:08;20.60;99.90
20827;DHT22;10574;52.508;13.236;2022-08-30T15:06:37;20.90;99.90
20827;DHT22;10574;52.508;13.236;2022-08-30T15:09:08;21.00;99.90
20827;DHT22;10574;52.508;13.236;2022-08-30T15:11:36;20.90;99.90
20827;DHT22;10574;52.508;13.236;2022-08-30T15:14:06;20.90;99.90
20827;DHT22;10574;52.508;13.236;2022-08-30T15:16:35;20.90;99.90
20827;DHT22;10574;52.508;13.236;2022-08-30T15:19:05;21.10;99.90
20827;DHT22;10574;52.508;13.236;2022-08-30T15:21:36;21.10;99.90
20827;DHT22;10574;52.508;13.236;2022-08-30T15:24:06;21.10;99.90
20827;DHT22;10574;52.508;13.236;2022-08-30T15:26:35;21.10;99.90
20827;DHT22;10574;52.508;13.236;2022-08-30T15:29:04;21.00;99.90
20827;DHT22;10574;52.508;13.236;2022-08-30T15:31:32;20.80;99.90
20827;DHT22;10574;52.508;13.236;2022-08-30T15:36:56;20.80;99.90
20827;DHT22;10574;52.508;13.236;2022-08-30T15:39:24;20.80;99.90
20827;DHT22;10574;52.508;13.236;2022-08-30T15:41:52;20.60;99.90
20827;DHT22;10574;52.508;13.236;2022-08-30T15:44:20;20.50;99.90
20827;DHT22;10574;52.508;13.236;2022-08-30T15:46:48;20.60;99.90
20827;DHT22;10574;52.508;13.236;2022-08-30T15:49:21;20.60;99.90
20827;DHT22;10574;52.508;13.236;2022-08-30T15:51:50;20.70;99.90
20827;DHT22;10574;52.508;13.236;2022-08-30T15:54:19;20.60;99.90
20827;DHT22;10574;52.508;13.236;2022-08-30T15:56:47;20.50;99.90
20827;DHT22;10574;52.508;13.236;2022-08-30T15:59:15;20.40;99.90
20827;DHT22;10574;52.508;13.236;2022-08-30T16:01:47;20.40;99.90
20827;DHT22;10574;52.508;13.236;2022-08-30T16:04:14;20.20;99.90
20827;DHT22;10574;52.508;13.236;2022-08-30T16:06:46;20.20;99.90
20827;DHT22;10574;52.508;13.236;2022-08-30T16:09:14;20.20;99.90
20827;DHT22;10574;52.508;13.236;2022-08-30T16:11:41;20.40;99.90
20827;DHT22;10574;52.508;13.236;2022-08-30T16:14:28;20.40;99.90
20827;DHT22;10574;52.508;13.236;2022-08-30T16:16:56;20.30;99.90
20827;DHT22;10574;52.508;13.236;2022-08-30T16:19:25;20.30;99.90
20827;DHT22;10574;52.508;13.236;2022-08-30T16:21:53;20.20;99.90
20827;DHT22;10574;52.508;13.236;2022-08-30T16:24:21;20.20;99.90
20827;DHT22;10574;52.508;13.236;2022-08-30T16:26:49;20.10;99.90
20827;DHT22;10574;52.508;13.236;2022-08-30T16:29:17;20.20;99.90
20827;DHT22;10574;52.508;13.236;2022-08-30T16:31:44;20.20;99.90
20827;DHT22;10574;52.508;13.236;2022-08-30T16:34:14;20.20;99.90
20827;DHT22;10574;52.508;13.236;2022-08-30T16:36:42;20.20;99.90
20827;DHT22;10574;52.508;13.236;2022-08-30T16:39:10;20.20;99.90
20827;DHT22;10574;52.508;13.236;2022-08-30T16:41:40;20.10;99.90
20827;DHT22;10574;52.508;13.236;2022-08-30T16:44:08;20.10;99.90
20827;DHT22;10574;52.508;13.236;2022-08-30T16:46:36;20.00;99.90